ITY641 KSFO-LIRF
Flight info
| Callsign | ITY641 |
|---|---|
| Flight time | N/A |
| Altitude | 35000 |
| Route | SNTNA2 ORRCA DCT FMG J94 LLC DCT DLN DCT HILGR DCT GGW DCT 50N101W/N0498F370 52N090W DCT PIGLA DCT MCKEE/M085F370 DCT TOXIT DCT 60N050W/M085F390 61N040W 61N030W 60N020W DCT GOMUP/N0488F390 DCT GINGA DCT DONIB DCT DIMLI/N0487F410 DCT DUFFY DCT RINGA DCT MAKUX DCT SOSIM L15 KEPAD L151 MID UL612 OGULO DCT OKASI DCT OKEKO DCT MOU DCT MADIV DCT MOKIP DCT TUFTA DCT KOGAS DCT MEDAM DCT NITAM DCT MOGBO DCT ELB/N0483F400 DCT ELKAP ELKAP3A |
| Aircraft | A359/H-SDE2E3GHIJ3J4J5LM1ORWXY/LB1D1 |
Departure
| Time | 2026-05-04 21:22 |
|---|---|
| Airport | San Francisco International Airport (KSFO) |
Arrival
| Time | N/A |
|---|---|
| Airport | Rome–Fiumicino Leonardo da Vinci International Airport (LIRF) |
| Time | Latitude | Longitude | Altitude | Speed | Heading |
|---|---|---|---|---|---|
| 2026-05-04 20:56 | 37.61269 | -122.39029 | 28 ft | 0 kts | 117° |
| 2026-05-04 21:03 | 37.61270 | -122.39032 | 28 ft | 3 kts | 117° |
| 2026-05-04 21:03 | 37.61280 | -122.39062 | 28 ft | 4 kts | 104° |
| 2026-05-04 21:03 | 37.61286 | -122.39094 | 28 ft | 4 kts | 113° |
| 2026-05-04 21:03 | 37.61295 | -122.39111 | 25 ft | 3 kts | 150° |
| 2026-05-04 21:04 | 37.61311 | -122.39120 | 28 ft | 4 kts | 192° |
| 2026-05-04 21:04 | 37.61334 | -122.39109 | 28 ft | 4 kts | 208° |
| 2026-05-04 21:04 | 37.61346 | -122.39101 | 26 ft | 5 kts | 207° |
| 2026-05-04 21:08 | 37.61332 | -122.39110 | 28 ft | 6 kts | 207° |
| 2026-05-04 21:08 | 37.61277 | -122.39146 | 28 ft | 11 kts | 207° |
| 2026-05-04 21:08 | 37.61203 | -122.39192 | 28 ft | 12 kts | 200° |
| 2026-05-04 21:08 | 37.61121 | -122.39171 | 28 ft | 13 kts | 139° |
| 2026-05-04 21:09 | 37.61062 | -122.39084 | 28 ft | 13 kts | 130° |
| 2026-05-04 21:09 | 37.61003 | -122.38989 | 28 ft | 14 kts | 128° |
| 2026-05-04 21:09 | 37.60940 | -122.38891 | 28 ft | 15 kts | 125° |
| 2026-05-04 21:09 | 37.60888 | -122.38777 | 27 ft | 15 kts | 118° |
| 2026-05-04 21:10 | 37.60845 | -122.38673 | 28 ft | 12 kts | 117° |
| 2026-05-04 21:10 | 37.60814 | -122.38600 | 28 ft | 8 kts | 117° |
| 2026-05-04 21:10 | 37.60800 | -122.38536 | 28 ft | 7 kts | 80° |
| 2026-05-04 21:10 | 37.60836 | -122.38505 | 28 ft | 6 kts | 11° |
| 2026-05-04 21:11 | 37.60882 | -122.38498 | 28 ft | 7 kts | 13° |
| 2026-05-04 21:11 | 37.60931 | -122.38473 | 28 ft | 8 kts | 29° |
| 2026-05-04 21:11 | 37.60979 | -122.38433 | 28 ft | 9 kts | 36° |
| 2026-05-04 21:11 | 37.61032 | -122.38386 | 28 ft | 10 kts | 33° |
| 2026-05-04 21:12 | 37.61093 | -122.38343 | 28 ft | 10 kts | 27° |
| 2026-05-04 21:12 | 37.61159 | -122.38299 | 28 ft | 11 kts | 27° |
| 2026-05-04 21:12 | 37.61230 | -122.38252 | 28 ft | 12 kts | 27° |
| 2026-05-04 21:12 | 37.61305 | -122.38203 | 28 ft | 12 kts | 28° |
| 2026-05-04 21:13 | 37.61374 | -122.38157 | 28 ft | 8 kts | 27° |
| 2026-05-04 21:13 | 37.61406 | -122.38126 | 28 ft | 5 kts | 60° |
| 2026-05-04 21:13 | 37.61401 | -122.38087 | 28 ft | 5 kts | 110° |
| 2026-05-04 21:13 | 37.61386 | -122.38045 | 28 ft | 6 kts | 115° |
| 2026-05-04 21:14 | 37.61367 | -122.37994 | 28 ft | 7 kts | 115° |
| 2026-05-04 21:14 | 37.61340 | -122.37927 | 28 ft | 10 kts | 120° |
| 2026-05-04 21:14 | 37.61301 | -122.37839 | 27 ft | 12 kts | 118° |
| 2026-05-04 21:14 | 37.61260 | -122.37743 | 28 ft | 13 kts | 116° |
| 2026-05-04 21:15 | 37.61230 | -122.37634 | 28 ft | 13 kts | 96° |
| 2026-05-04 21:15 | 37.61257 | -122.37523 | 28 ft | 14 kts | 54° |
| 2026-05-04 21:15 | 37.61333 | -122.37448 | 28 ft | 14 kts | 30° |
| 2026-05-04 21:15 | 37.61422 | -122.37389 | 28 ft | 15 kts | 27° |
| 2026-05-04 21:16 | 37.61513 | -122.37330 | 28 ft | 13 kts | 27° |
| 2026-05-04 21:16 | 37.61572 | -122.37288 | 28 ft | 7 kts | 28° |
| 2026-05-04 21:16 | 37.61604 | -122.37253 | 28 ft | 4 kts | 74° |
| 2026-05-04 21:16 | 37.61594 | -122.37216 | 28 ft | 5 kts | 116° |
| 2026-05-04 21:17 | 37.61578 | -122.37174 | 28 ft | 6 kts | 116° |
| 2026-05-04 21:17 | 37.61558 | -122.37124 | 28 ft | 7 kts | 117° |
| 2026-05-04 21:17 | 37.61533 | -122.37066 | 28 ft | 8 kts | 118° |
| 2026-05-04 21:17 | 37.61503 | -122.36994 | 28 ft | 10 kts | 119° |
| 2026-05-04 21:18 | 37.61459 | -122.36914 | 28 ft | 12 kts | 129° |
| 2026-05-04 21:18 | 37.61399 | -122.36830 | 28 ft | 13 kts | 131° |
| 2026-05-04 21:18 | 37.61343 | -122.36730 | 28 ft | 14 kts | 118° |
| 2026-05-04 21:18 | 37.61297 | -122.36616 | 27 ft | 15 kts | 117° |
| 2026-05-04 21:19 | 37.61248 | -122.36497 | 28 ft | 16 kts | 118° |
| 2026-05-04 21:19 | 37.61196 | -122.36375 | 28 ft | 16 kts | 118° |
| 2026-05-04 21:19 | 37.61142 | -122.36248 | 28 ft | 17 kts | 118° |
| 2026-05-04 21:19 | 37.61085 | -122.36114 | 28 ft | 17 kts | 118° |
| 2026-05-04 21:20 | 37.61053 | -122.35989 | 28 ft | 15 kts | 83° |
| 2026-05-04 21:20 | 37.61111 | -122.35898 | 28 ft | 10 kts | 29° |
| 2026-05-04 21:20 | 37.61172 | -122.35871 | 28 ft | 6 kts | 354° |
| 2026-05-04 21:20 | 37.61190 | -122.35887 | 28 ft | 4 kts | 314° |
| 2026-05-04 21:21 | 37.61218 | -122.35951 | 28 ft | 19 kts | 297° |
| 2026-05-04 21:21 | 37.61385 | -122.36346 | 28 ft | 83 kts | 297° |
| 2026-05-04 21:21 | 37.61745 | -122.37205 | 28 ft | 138 kts | 298° |
| 2026-05-04 21:21 | 37.62268 | -122.38428 | 260 ft | 163 kts | 298° |
| 2026-05-04 21:22 | 37.62797 | -122.39622 | 1056 ft | 157 kts | 296° |
| 2026-05-04 21:22 | 37.63340 | -122.40895 | 1334 ft | 173 kts | 296° |
| 2026-05-04 21:22 | 37.63931 | -122.42302 | 1517 ft | 189 kts | 296° |
| 2026-05-04 21:22 | 37.64576 | -122.43844 | 1713 ft | 210 kts | 296° |
| 2026-05-04 21:23 | 37.65294 | -122.45543 | 1944 ft | 229 kts | 297° |
| 2026-05-04 21:23 | 37.65807 | -122.46737 | 2223 ft | 237 kts | 298° |
| 2026-05-04 21:23 | 37.66338 | -122.47957 | 2570 ft | 243 kts | 298° |
| 2026-05-04 21:23 | 37.67484 | -122.50482 | 3333 ft | 252 kts | 304° |
| 2026-05-04 21:24 | 37.68771 | -122.51992 | 3855 ft | 258 kts | 332° |
| 2026-05-04 21:24 | 37.70509 | -122.52559 | 4397 ft | 262 kts | 356° |
| 2026-05-04 21:24 | 37.72344 | -122.52635 | 4963 ft | 266 kts | 359° |
| 2026-05-04 21:24 | 37.74206 | -122.52666 | 5525 ft | 270 kts | 359° |
| 2026-05-04 21:25 | 37.76738 | -122.52729 | 6340 ft | 274 kts | 359° |
| 2026-05-04 21:25 | 37.78008 | -122.52700 | 6733 ft | 277 kts | 6° |
| 2026-05-04 21:25 | 37.79842 | -122.52022 | 7385 ft | 276 kts | 30° |
| 2026-05-04 21:25 | 37.81249 | -122.50419 | 8162 ft | 274 kts | 56° |
| 2026-05-04 21:26 | 37.82134 | -122.48305 | 9055 ft | 273 kts | 65° |
| 2026-05-04 21:26 | 37.82896 | -122.46089 | 9846 ft | 276 kts | 66° |
| 2026-05-04 21:26 | 37.83706 | -122.43866 | 10393 ft | 285 kts | 61° |
| 2026-05-04 21:26 | 37.84888 | -122.41777 | 10670 ft | 299 kts | 49° |
| 2026-05-04 21:27 | 37.86297 | -122.39747 | 10932 ft | 315 kts | 48° |
| 2026-05-04 21:27 | 37.87789 | -122.37628 | 11197 ft | 329 kts | 49° |
| 2026-05-04 21:27 | 37.89342 | -122.35408 | 11470 ft | 344 kts | 49° |
| 2026-05-04 21:27 | 37.90955 | -122.33093 | 11747 ft | 357 kts | 49° |
| 2026-05-04 21:28 | 37.92623 | -122.30693 | 11992 ft | 369 kts | 49° |
| 2026-05-04 21:28 | 37.94318 | -122.28252 | 12398 ft | 376 kts | 49° |
| 2026-05-04 21:28 | 37.96056 | -122.25743 | 12967 ft | 381 kts | 49° |
| 2026-05-04 21:28 | 37.97807 | -122.23211 | 13688 ft | 384 kts | 49° |
| 2026-05-04 21:29 | 37.99577 | -122.20654 | 14357 ft | 386 kts | 49° |
| 2026-05-04 21:29 | 38.01358 | -122.18081 | 14993 ft | 389 kts | 49° |
| 2026-05-04 21:29 | 38.03149 | -122.15485 | 15496 ft | 392 kts | 50° |
| 2026-05-04 21:29 | 38.04954 | -122.12866 | 16047 ft | 393 kts | 50° |
| 2026-05-04 21:30 | 38.06756 | -122.10251 | 16613 ft | 394 kts | 50° |
| 2026-05-04 21:30 | 38.08538 | -122.07663 | 17175 ft | 395 kts | 50° |
| 2026-05-04 21:30 | 38.10345 | -122.05036 | 17735 ft | 396 kts | 50° |
| 2026-05-04 21:30 | 38.12150 | -122.02409 | 18300 ft | 396 kts | 50° |
| 2026-05-04 21:31 | 38.15787 | -121.97110 | 19289 ft | 398 kts | 50° |
| 2026-05-04 21:31 | 38.17611 | -121.94450 | 19766 ft | 399 kts | 50° |
| 2026-05-04 21:31 | 38.19431 | -121.91794 | 20269 ft | 401 kts | 50° |
| 2026-05-04 21:32 | 38.21270 | -121.89108 | 20796 ft | 402 kts | 50° |
| 2026-05-04 21:32 | 38.23108 | -121.86419 | 21309 ft | 403 kts | 50° |
| 2026-05-04 21:32 | 38.24951 | -121.83723 | 21821 ft | 405 kts | 50° |
| 2026-05-04 21:32 | 38.26801 | -121.81014 | 22307 ft | 407 kts | 50° |
| 2026-05-04 21:33 | 38.28660 | -121.78291 | 22812 ft | 409 kts | 50° |
| 2026-05-04 21:33 | 38.30534 | -121.75542 | 23310 ft | 411 kts | 50° |
| 2026-05-04 21:33 | 38.32412 | -121.72784 | 23741 ft | 413 kts | 50° |
| 2026-05-04 21:33 | 38.34303 | -121.70006 | 24105 ft | 416 kts | 50° |
| 2026-05-04 21:34 | 38.36197 | -121.67219 | 24486 ft | 419 kts | 50° |
| 2026-05-04 21:34 | 38.38117 | -121.64393 | 24866 ft | 421 kts | 50° |
| 2026-05-04 21:34 | 38.40039 | -121.61562 | 25241 ft | 423 kts | 50° |
| 2026-05-04 21:34 | 38.41942 | -121.58755 | 25607 ft | 426 kts | 50° |
| 2026-05-04 21:35 | 38.43918 | -121.55840 | 25989 ft | 428 kts | 50° |
| 2026-05-04 21:35 | 38.45825 | -121.52983 | 26350 ft | 430 kts | 51° |
| 2026-05-04 21:35 | 38.47669 | -121.49964 | 26723 ft | 432 kts | 53° |
| 2026-05-04 21:35 | 38.49457 | -121.46870 | 27100 ft | 434 kts | 54° |
| 2026-05-04 21:36 | 38.51229 | -121.43748 | 27468 ft | 436 kts | 54° |
| 2026-05-04 21:36 | 38.53016 | -121.40609 | 27816 ft | 438 kts | 54° |
| 2026-05-04 21:36 | 38.54822 | -121.37468 | 28187 ft | 440 kts | 54° |
| 2026-05-04 21:36 | 38.56652 | -121.34315 | 28507 ft | 441 kts | 53° |
| 2026-05-04 21:37 | 38.58494 | -121.31163 | 28811 ft | 444 kts | 53° |
| 2026-05-04 21:37 | 38.60349 | -121.27996 | 29118 ft | 445 kts | 53° |
| 2026-05-04 21:37 | 38.62206 | -121.24830 | 29500 ft | 445 kts | 53° |
| 2026-05-04 21:37 | 38.64060 | -121.21666 | 29954 ft | 444 kts | 53° |
| 2026-05-04 21:38 | 38.65909 | -121.18506 | 30323 ft | 443 kts | 53° |
| 2026-05-04 21:38 | 38.67758 | -121.15343 | 30568 ft | 444 kts | 53° |
| 2026-05-04 21:38 | 38.69604 | -121.12179 | 30827 ft | 445 kts | 53° |
| 2026-05-04 21:38 | 38.71457 | -121.08999 | 31112 ft | 446 kts | 54° |
| 2026-05-04 21:39 | 38.73315 | -121.05806 | 31380 ft | 447 kts | 54° |
| 2026-05-04 21:39 | 38.75177 | -121.02604 | 31615 ft | 448 kts | 54° |
| 2026-05-04 21:39 | 38.77041 | -120.99395 | 31878 ft | 449 kts | 54° |
| 2026-05-04 21:39 | 38.78882 | -120.96223 | 32097 ft | 450 kts | 54° |
| 2026-05-04 21:40 | 38.80747 | -120.93007 | 32369 ft | 451 kts | 54° |
| 2026-05-04 21:40 | 38.82618 | -120.89776 | 32677 ft | 451 kts | 54° |
| 2026-05-04 21:40 | 38.84490 | -120.86542 | 32950 ft | 452 kts | 54° |
| 2026-05-04 21:40 | 38.86364 | -120.83301 | 33194 ft | 453 kts | 54° |
| 2026-05-04 21:41 | 38.88244 | -120.80046 | 33430 ft | 453 kts | 54° |
| 2026-05-04 21:41 | 38.90123 | -120.76789 | 33643 ft | 454 kts | 54° |
| 2026-05-04 21:41 | 38.92005 | -120.73524 | 33866 ft | 454 kts | 54° |
| 2026-05-04 21:42 | 38.96099 | -120.66410 | 34234 ft | 456 kts | 54° |
| 2026-05-04 21:42 | 38.97984 | -120.63131 | 34374 ft | 457 kts | 54° |
| 2026-05-04 21:42 | 38.99875 | -120.59837 | 34490 ft | 458 kts | 54° |
| 2026-05-04 21:42 | 39.01767 | -120.56536 | 34600 ft | 460 kts | 54° |
| 2026-05-04 21:43 | 39.03664 | -120.53223 | 34709 ft | 461 kts | 54° |
| 2026-05-04 21:43 | 39.05573 | -120.49888 | 34830 ft | 462 kts | 54° |
| 2026-05-04 21:43 | 39.07478 | -120.46554 | 34945 ft | 464 kts | 54° |
| 2026-05-04 21:44 | 39.11324 | -120.39814 | 34988 ft | 471 kts | 54° |
| 2026-05-04 21:44 | 39.14553 | -120.34144 | 34985 ft | 472 kts | 54° |
| 2026-05-04 21:45 | 39.19060 | -120.26215 | 35002 ft | 471 kts | 54° |
| 2026-05-04 21:45 | 39.22305 | -120.20493 | 35017 ft | 471 kts | 54° |
| 2026-05-04 21:46 | 39.26731 | -120.12674 | 35028 ft | 472 kts | 55° |
| 2026-05-04 21:46 | 39.29827 | -120.07192 | 35025 ft | 472 kts | 55° |
| 2026-05-04 21:47 | 39.33685 | -120.00347 | 35017 ft | 472 kts | 55° |
| 2026-05-04 21:47 | 39.37542 | -119.93491 | 34981 ft | 471 kts | 55° |
| 2026-05-04 21:48 | 39.41364 | -119.86681 | 34947 ft | 471 kts | 55° |
| 2026-05-04 21:48 | 39.45209 | -119.79814 | 34950 ft | 471 kts | 55° |
| 2026-05-04 21:49 | 39.49054 | -119.72936 | 34951 ft | 471 kts | 55° |
| 2026-05-04 21:49 | 39.52890 | -119.66059 | 34953 ft | 471 kts | 55° |
| 2026-05-04 21:50 | 39.56732 | -119.59189 | 34924 ft | 471 kts | 55° |
| 2026-05-04 21:50 | 39.60576 | -119.52306 | 34889 ft | 471 kts | 55° |
| 2026-05-04 21:51 | 39.64415 | -119.45417 | 34850 ft | 471 kts | 55° |
| 2026-05-04 21:51 | 39.68251 | -119.38519 | 34806 ft | 471 kts | 55° |
| 2026-05-04 21:52 | 39.72075 | -119.31625 | 34799 ft | 471 kts | 55° |
| 2026-05-04 21:52 | 39.75905 | -119.24705 | 34794 ft | 471 kts | 55° |
| 2026-05-04 21:53 | 39.79722 | -119.17793 | 34789 ft | 471 kts | 55° |
| 2026-05-04 21:53 | 39.83517 | -119.10911 | 34781 ft | 471 kts | 55° |
| 2026-05-04 21:54 | 39.87325 | -119.03988 | 34777 ft | 470 kts | 55° |
| 2026-05-04 21:54 | 39.91129 | -118.97057 | 34779 ft | 471 kts | 55° |
| 2026-05-04 21:55 | 39.94937 | -118.90104 | 34791 ft | 472 kts | 55° |
| 2026-05-04 21:55 | 39.98750 | -118.83124 | 34809 ft | 473 kts | 56° |
| 2026-05-04 21:56 | 40.02563 | -118.76131 | 34823 ft | 473 kts | 56° |
| 2026-05-04 21:56 | 40.06376 | -118.69121 | 34840 ft | 474 kts | 56° |
| 2026-05-04 21:57 | 40.10188 | -118.62100 | 34841 ft | 474 kts | 56° |
| 2026-05-04 21:57 | 40.14590 | -118.55702 | 34843 ft | 475 kts | 42° |
| 2026-05-04 21:58 | 40.19639 | -118.50174 | 34809 ft | 475 kts | 40° |
| 2026-05-04 21:58 | 40.24793 | -118.44760 | 34795 ft | 475 kts | 40° |
| 2026-05-04 21:59 | 40.29935 | -118.39361 | 34777 ft | 473 kts | 40° |
| 2026-05-04 21:59 | 40.35060 | -118.33935 | 34759 ft | 473 kts | 40° |
| 2026-05-04 22:00 | 40.40159 | -118.28509 | 34749 ft | 472 kts | 41° |
| 2026-05-04 22:00 | 40.45258 | -118.23070 | 34741 ft | 471 kts | 40° |
| 2026-05-04 22:01 | 40.50341 | -118.17638 | 34739 ft | 471 kts | 40° |
| 2026-05-04 22:01 | 40.55423 | -118.12198 | 34736 ft | 470 kts | 41° |
| 2026-05-04 22:02 | 40.60491 | -118.06762 | 34745 ft | 470 kts | 41° |
| 2026-05-04 22:02 | 40.65558 | -118.01316 | 34747 ft | 470 kts | 41° |
| 2026-05-04 22:03 | 40.70592 | -117.95895 | 34771 ft | 470 kts | 41° |
| 2026-05-04 22:03 | 40.75661 | -117.90425 | 34783 ft | 470 kts | 41° |
| 2026-05-04 22:04 | 40.80720 | -117.84955 | 34797 ft | 470 kts | 41° |
| 2026-05-04 22:04 | 40.85782 | -117.79470 | 34801 ft | 471 kts | 41° |
| 2026-05-04 22:05 | 40.90838 | -117.73982 | 34801 ft | 470 kts | 41° |
| 2026-05-04 22:05 | 40.95899 | -117.68475 | 34797 ft | 470 kts | 41° |
| 2026-05-04 22:06 | 41.00940 | -117.62979 | 34779 ft | 470 kts | 41° |
| 2026-05-04 22:06 | 41.05984 | -117.57470 | 34757 ft | 469 kts | 41° |
| 2026-05-04 22:07 | 41.11019 | -117.51959 | 34735 ft | 469 kts | 41° |
| 2026-05-04 22:07 | 41.16017 | -117.46477 | 34722 ft | 469 kts | 41° |
| 2026-05-04 22:08 | 41.21043 | -117.40951 | 34722 ft | 469 kts | 41° |
| 2026-05-04 22:08 | 41.26068 | -117.35415 | 34725 ft | 469 kts | 41° |
| 2026-05-04 22:09 | 41.31088 | -117.29874 | 34729 ft | 470 kts | 41° |
| 2026-05-04 22:09 | 41.36120 | -117.24308 | 34731 ft | 470 kts | 41° |
| 2026-05-04 22:10 | 41.41160 | -117.18722 | 34739 ft | 471 kts | 41° |
| 2026-05-04 22:10 | 41.46195 | -117.13131 | 34744 ft | 471 kts | 41° |
| 2026-05-04 22:11 | 41.51235 | -117.07521 | 34744 ft | 472 kts | 41° |
| 2026-05-04 22:11 | 41.56242 | -117.01937 | 34743 ft | 472 kts | 41° |
| 2026-05-04 22:12 | 41.61280 | -116.96307 | 34745 ft | 472 kts | 41° |
| 2026-05-04 22:12 | 41.66323 | -116.90657 | 34747 ft | 473 kts | 41° |
| 2026-05-04 22:13 | 41.71362 | -116.85001 | 34744 ft | 473 kts | 41° |
| 2026-05-04 22:13 | 41.76406 | -116.79328 | 34746 ft | 473 kts | 40° |
| 2026-05-04 22:14 | 41.81439 | -116.73655 | 34745 ft | 473 kts | 40° |
| 2026-05-04 22:14 | 41.86477 | -116.67965 | 34742 ft | 473 kts | 40° |
| 2026-05-04 22:15 | 41.91517 | -116.62261 | 34745 ft | 473 kts | 40° |
| 2026-05-04 22:15 | 41.96517 | -116.56588 | 34743 ft | 474 kts | 40° |
| 2026-05-04 22:16 | 42.01577 | -116.50836 | 34747 ft | 474 kts | 40° |
| 2026-05-04 22:16 | 42.06608 | -116.45105 | 34753 ft | 474 kts | 40° |
| 2026-05-04 22:17 | 42.11642 | -116.39357 | 34751 ft | 474 kts | 40° |
| 2026-05-04 22:17 | 42.16637 | -116.33642 | 34756 ft | 474 kts | 40° |
| 2026-05-04 22:18 | 42.21662 | -116.27880 | 34762 ft | 474 kts | 40° |
| 2026-05-04 22:18 | 42.26680 | -116.22114 | 34765 ft | 474 kts | 40° |
| 2026-05-04 22:19 | 42.31697 | -116.16337 | 34764 ft | 474 kts | 40° |
| 2026-05-04 22:19 | 42.36710 | -116.10550 | 34766 ft | 474 kts | 40° |
| 2026-05-04 22:20 | 42.41716 | -116.04758 | 34757 ft | 473 kts | 40° |
| 2026-05-04 22:20 | 42.46709 | -115.98970 | 34749 ft | 472 kts | 40° |
| 2026-05-04 22:21 | 42.51691 | -115.93183 | 34738 ft | 471 kts | 40° |
| 2026-05-04 22:21 | 42.56666 | -115.87392 | 34743 ft | 470 kts | 40° |
| 2026-05-04 22:22 | 42.61620 | -115.81614 | 34731 ft | 469 kts | 40° |
| 2026-05-04 22:22 | 42.66535 | -115.75866 | 34731 ft | 469 kts | 40° |
| 2026-05-04 22:23 | 42.71485 | -115.70065 | 34718 ft | 470 kts | 40° |
| 2026-05-04 22:23 | 42.76436 | -115.64251 | 34720 ft | 470 kts | 40° |
| 2026-05-04 22:24 | 42.81398 | -115.58410 | 34722 ft | 471 kts | 40° |
| 2026-05-04 22:24 | 42.86349 | -115.52570 | 34718 ft | 471 kts | 40° |
| 2026-05-04 22:25 | 42.91306 | -115.46709 | 34727 ft | 471 kts | 40° |
| 2026-05-04 22:25 | 42.96261 | -115.40839 | 34715 ft | 472 kts | 40° |
| 2026-05-04 22:26 | 43.01212 | -115.34959 | 34713 ft | 472 kts | 40° |
| 2026-05-04 22:26 | 43.06169 | -115.29060 | 34718 ft | 473 kts | 40° |
| 2026-05-04 22:27 | 43.11132 | -115.23141 | 34728 ft | 473 kts | 40° |
| 2026-05-04 22:27 | 43.16094 | -115.17209 | 34723 ft | 474 kts | 40° |
| 2026-05-04 22:28 | 43.21057 | -115.11262 | 34735 ft | 474 kts | 40° |
| 2026-05-04 22:28 | 43.26024 | -115.05298 | 34742 ft | 475 kts | 40° |
| 2026-05-04 22:29 | 43.30964 | -114.99352 | 34738 ft | 475 kts | 40° |
| 2026-05-04 22:29 | 43.35938 | -114.93354 | 34757 ft | 476 kts | 40° |
| 2026-05-04 22:30 | 43.40907 | -114.87346 | 34749 ft | 476 kts | 40° |
| 2026-05-04 22:30 | 43.45879 | -114.81320 | 34757 ft | 476 kts | 40° |
| 2026-05-04 22:31 | 43.50847 | -114.75288 | 34765 ft | 476 kts | 40° |
| 2026-05-04 22:31 | 43.55811 | -114.69246 | 34784 ft | 476 kts | 40° |
| 2026-05-04 22:32 | 43.59950 | -114.64196 | 34799 ft | 476 kts | 40° |
| 2026-05-04 22:32 | 43.64905 | -114.58138 | 34807 ft | 476 kts | 40° |
| 2026-05-04 22:33 | 43.69860 | -114.52065 | 34814 ft | 476 kts | 40° |
| 2026-05-04 22:33 | 43.74801 | -114.45999 | 34805 ft | 475 kts | 40° |
| 2026-05-04 22:34 | 43.79739 | -114.39922 | 34796 ft | 474 kts | 40° |
| 2026-05-04 22:34 | 43.84666 | -114.33847 | 34780 ft | 474 kts | 40° |
| 2026-05-04 22:35 | 43.89582 | -114.27765 | 34773 ft | 474 kts | 40° |
| 2026-05-04 22:35 | 43.94496 | -114.21674 | 34767 ft | 473 kts | 40° |
| 2026-05-04 22:36 | 43.99400 | -114.15582 | 34761 ft | 473 kts | 40° |
| 2026-05-04 22:36 | 44.04299 | -114.09483 | 34754 ft | 472 kts | 40° |
| 2026-05-04 22:37 | 44.09186 | -114.03382 | 34742 ft | 472 kts | 40° |
| 2026-05-04 22:37 | 44.14064 | -113.97282 | 34737 ft | 471 kts | 40° |
| 2026-05-04 22:38 | 44.18911 | -113.91204 | 34734 ft | 471 kts | 40° |
| 2026-05-04 22:38 | 44.23775 | -113.85094 | 34739 ft | 471 kts | 40° |
| 2026-05-04 22:39 | 44.28641 | -113.78965 | 34738 ft | 470 kts | 40° |
| 2026-05-04 22:39 | 44.33490 | -113.72844 | 34738 ft | 470 kts | 40° |
| 2026-05-04 22:40 | 44.38337 | -113.66707 | 34744 ft | 470 kts | 40° |
| 2026-05-04 22:40 | 44.43175 | -113.60568 | 34751 ft | 470 kts | 40° |
| 2026-05-04 22:41 | 44.48018 | -113.54410 | 34758 ft | 469 kts | 40° |
| 2026-05-04 22:41 | 44.52798 | -113.48307 | 34766 ft | 465 kts | 39° |
| 2026-05-04 22:42 | 44.57559 | -113.42229 | 34769 ft | 462 kts | 39° |
| 2026-05-04 22:42 | 44.62318 | -113.36142 | 34780 ft | 462 kts | 39° |
| 2026-05-04 22:43 | 44.67070 | -113.30046 | 34788 ft | 463 kts | 39° |
| 2026-05-04 22:43 | 44.71824 | -113.23930 | 34796 ft | 463 kts | 39° |
| 2026-05-04 22:44 | 44.76571 | -113.17807 | 34785 ft | 463 kts | 39° |
| 2026-05-04 22:44 | 44.81315 | -113.11676 | 34793 ft | 463 kts | 39° |
| 2026-05-04 22:45 | 44.86069 | -113.05522 | 34805 ft | 463 kts | 39° |
| 2026-05-04 22:45 | 44.91610 | -112.98327 | 34814 ft | 464 kts | 39° |